East Craftsbury, Vermont
Current Conditions -  °F | °C
As of 8:23 AM on Friday 24 Oct 2014 (Local Time) from KMVL Reporting Station
Overcast Overcast  
Wind Chill: 39°   Ceiling: 1500
Heat Index: 42°   Visibility: 10mi
Dew Point: 38°   Wind: 5mph
Humidity: 85%   Direction: 340°NNW
Pressure: 29.84"   Gusts: NA
Location:  44.6462°N, 72.3558°W
Report Text: KMVL 241223Z AUTO 34004KT 10SM FEW008 OVC015 06/03 A2984 RMK AO2 T00560033
Loading
Personal Weather Stations






























Interactive Weather Map
Tropical Storm Tracking
New forecast layout! Learn more

10-Day Weather Forecast

Advertisements
Track Severe Weather on mobile